sensor_id;sensor_type;location;lat;lon;timestamp;pressure;altitude;pressure_sealevel;temperature;humidity
69187;BME280;56301;56.864;60.554;2022-08-19T00:00:39;99959.13;;;23.89;45.17
69187;BME280;56301;56.864;60.554;2022-08-19T00:03:01;99966.25;;;23.90;45.33
69187;BME280;56301;56.864;60.554;2022-08-19T00:05:24;99958.28;;;23.88;45.03
69187;BME280;56301;56.864;60.554;2022-08-19T00:07:46;99968.25;;;23.88;45.53
69187;BME280;56301;56.864;60.554;2022-08-19T00:10:10;99967.56;;;23.86;45.27
69187;BME280;56301;56.864;60.554;2022-08-19T00:12:33;99971.09;;;23.86;45.01
69187;BME280;56301;56.864;60.554;2022-08-19T00:14:56;99986.47;;;23.86;45.32
69187;BME280;56301;56.864;60.554;2022-08-19T00:17:18;99980.91;;;23.87;44.76
69187;BME280;56301;56.864;60.554;2022-08-19T00:19:41;99987.16;;;23.88;44.89
69187;BME280;56301;56.864;60.554;2022-08-19T00:22:06;99988.16;;;23.87;44.71
69187;BME280;56301;56.864;60.554;2022-08-19T00:24:28;100001.53;;;23.88;45.01
69187;BME280;56301;56.864;60.554;2022-08-19T00:26:51;100007.22;;;23.85;45.06
69187;BME280;56301;56.864;60.554;2022-08-19T00:29:14;100008.09;;;23.86;44.99
69187;BME280;56301;56.864;60.554;2022-08-19T00:31:37;100005.41;;;23.86;44.79
69187;BME280;56301;56.864;60.554;2022-08-19T00:33:59;100003.53;;;23.86;44.76
69187;BME280;56301;56.864;60.554;2022-08-19T00:36:22;100000.00;;;23.86;45.16
69187;BME280;56301;56.864;60.554;2022-08-19T00:38:44;100006.38;;;23.85;45.22
69187;BME280;56301;56.864;60.554;2022-08-19T00:41:07;100000.13;;;23.84;45.36
69187;BME280;56301;56.864;60.554;2022-08-19T00:43:30;99993.88;;;23.84;45.16
69187;BME280;56301;56.864;60.554;2022-08-19T00:45:52;100000.28;;;23.83;45.23
69187;BME280;56301;56.864;60.554;2022-08-19T00:48:16;99999.28;;;23.84;45.40
69187;BME280;56301;56.864;60.554;2022-08-19T00:50:42;100007.38;;;23.84;45.68
69187;BME280;56301;56.864;60.554;2022-08-19T00:53:04;100013.78;;;23.83;45.56
69187;BME280;56301;56.864;60.554;2022-08-19T00:55:31;100022.88;;;23.82;45.53
69187;BME280;56301;56.864;60.554;2022-08-19T00:57:55;100025.56;;;23.82;45.32
69187;BME280;56301;56.864;60.554;2022-08-19T01:00:19;100027.44;;;23.81;45.06
69187;BME280;56301;56.864;60.554;2022-08-19T01:02:41;100043.53;;;23.83;44.92
69187;BME280;56301;56.864;60.554;2022-08-19T01:05:08;100036.38;;;23.82;45.32
69187;BME280;56301;56.864;60.554;2022-08-19T01:07:32;100030.28;;;23.80;45.39
69187;BME280;56301;56.864;60.554;2022-08-19T01:09:55;100030.97;;;23.82;45.03
69187;BME280;56301;56.864;60.554;2022-08-19T01:12:17;100032.84;;;23.81;45.49
69187;BME280;56301;56.864;60.554;2022-08-19T01:14:40;100028.28;;;23.82;45.57
69187;BME280;56301;56.864;60.554;2022-08-19T01:17:02;100037.28;;;23.82;45.68
69187;BME280;56301;56.864;60.554;2022-08-19T01:19:31;100030.97;;;23.82;45.21
69187;BME280;56301;56.864;60.554;2022-08-19T01:21:57;100036.56;;;23.80;45.76
69187;BME280;56301;56.864;60.554;2022-08-19T01:24:21;100032.00;;;23.81;45.47
69187;BME280;56301;56.864;60.554;2022-08-19T01:26:43;100029.28;;;23.81;45.68
69187;BME280;56301;56.864;60.554;2022-08-19T01:29:06;100032.00;;;23.81;45.59
69187;BME280;56301;56.864;60.554;2022-08-19T01:31:29;100036.38;;;23.82;45.86
69187;BME280;56301;56.864;60.554;2022-08-19T01:33:52;100052.59;;;23.82;45.91
69187;BME280;56301;56.864;60.554;2022-08-19T01:36:16;100052.75;;;23.80;46.08
69187;BME280;56301;56.864;60.554;2022-08-19T01:38:44;100054.63;;;23.80;45.68
69187;BME280;56301;56.864;60.554;2022-08-19T01:41:06;100062.72;;;23.80;45.48
69187;BME280;56301;56.864;60.554;2022-08-19T01:43:29;100075.22;;;23.81;45.22
69187;BME280;56301;56.864;60.554;2022-08-19T01:45:51;100069.81;;;23.81;45.37
69187;BME280;56301;56.864;60.554;2022-08-19T01:48:13;100060.03;;;23.80;45.38
69187;BME280;56301;56.864;60.554;2022-08-19T01:50:36;100067.28;;;23.79;45.48
69187;BME280;56301;56.864;60.554;2022-08-19T01:52:59;100069.81;;;23.81;45.73
69187;BME280;56301;56.864;60.554;2022-08-19T01:55:21;100069.81;;;23.81;45.79
69187;BME280;56301;56.864;60.554;2022-08-19T01:57:45;100062.56;;;23.81;45.92
69187;BME280;56301;56.864;60.554;2022-08-19T02:00:13;100068.13;;;23.80;45.68
69187;BME280;56301;56.864;60.554;2022-08-19T02:02:36;100070.84;;;23.80;45.64
69187;BME280;56301;56.864;60.554;2022-08-19T02:04:59;100082.50;;;23.80;45.57
69187;BME280;56301;56.864;60.554;2022-08-19T02:07:21;100076.94;;;23.82;45.88
69187;BME280;56301;56.864;60.554;2022-08-19T02:09:43;100084.19;;;23.81;46.28
69187;BME280;56301;56.864;60.554;2022-08-19T02:12:06;100079.78;;;23.80;45.82
69187;BME280;56301;56.864;60.554;2022-08-19T02:14:29;100082.34;;;23.82;45.59
69187;BME280;56301;56.864;60.554;2022-08-19T02:16:51;100085.03;;;23.82;45.74
69187;BME280;56301;56.864;60.554;2022-08-19T02:19:13;100084.34;;;23.80;45.97
69187;BME280;56301;56.864;60.554;2022-08-19T02:21:36;100086.03;;;23.81;46.05
69187;BME280;56301;56.864;60.554;2022-08-19T02:23:59;100088.75;;;23.81;45.42
69187;BME280;56301;56.864;60.554;2022-08-19T02:26:21;100082.34;;;23.82;45.49
69187;BME280;56301;56.864;60.554;2022-08-19T02:28:44;100087.75;;;23.82;45.71
69187;BME280;56301;56.864;60.554;2022-08-19T02:31:11;100079.78;;;23.80;45.98
69187;BME280;56301;56.864;60.554;2022-08-19T02:33:34;100080.63;;;23.81;46.40
69187;BME280;56301;56.864;60.554;2022-08-19T02:35:56;100088.75;;;23.81;46.05
69187;BME280;56301;56.864;60.554;2022-08-19T02:38:19;100092.28;;;23.81;45.63
69187;BME280;56301;56.864;60.554;2022-08-19T02:40:47;100094.16;;;23.81;45.76
69187;BME280;56301;56.864;60.554;2022-08-19T02:43:09;100089.59;;;23.81;46.24
69187;BME280;56301;56.864;60.554;2022-08-19T02:45:32;100087.75;;;23.82;45.86
69187;BME280;56301;56.864;60.554;2022-08-19T02:47:55;100094.03;;;23.82;46.08
69187;BME280;56301;56.864;60.554;2022-08-19T02:50:17;100088.63;;;23.82;45.92
69187;BME280;56301;56.864;60.554;2022-08-19T02:52:40;100088.88;;;23.89;46.14
69187;BME280;56301;56.864;60.554;2022-08-19T02:55:02;100090.16;;;23.85;45.65
69187;BME280;56301;56.864;60.554;2022-08-19T02:57:25;100093.72;;;23.85;46.11
69187;BME280;56301;56.864;60.554;2022-08-19T02:59:48;100101.13;;;23.83;45.82
69187;BME280;56301;56.864;60.554;2022-08-19T03:02:10;100107.66;;;23.90;47.15
69187;BME280;56301;56.864;60.554;2022-08-19T03:04:33;100107.66;;;23.90;45.87
69187;BME280;56301;56.864;60.554;2022-08-19T03:06:55;100113.63;;;23.84;45.71
69187;BME280;56301;56.864;60.554;2022-08-19T03:09:18;100125.28;;;23.85;45.88
69187;BME280;56301;56.864;60.554;2022-08-19T03:11:41;100121.91;;;23.83;45.87
69187;BME280;56301;56.864;60.554;2022-08-19T03:14:03;100125.59;;;23.82;46.25
69187;BME280;56301;56.864;60.554;2022-08-19T03:16:29;100130.97;;;23.82;46.12
69187;BME280;56301;56.864;60.554;2022-08-19T03:18:52;100118.34;;;23.82;46.11
69187;BME280;56301;56.864;60.554;2022-08-19T03:21:16;100115.66;;;23.82;46.01
69187;BME280;56301;56.864;60.554;2022-08-19T03:23:39;100122.88;;;23.82;46.19
69187;BME280;56301;56.864;60.554;2022-08-19T03:26:04;100121.06;;;23.82;46.07
69187;BME280;56301;56.864;60.554;2022-08-19T03:28:27;100120.75;;;23.85;45.66
69187;BME280;56301;56.864;60.554;2022-08-19T03:31:02;100132.28;;;23.87;45.71
69187;BME280;56301;56.864;60.554;2022-08-19T03:33:25;100130.41;;;23.88;45.72
69187;BME280;56301;56.864;60.554;2022-08-19T03:35:59;100115.91;;;23.89;46.30
69187;BME280;56301;56.864;60.554;2022-08-19T03:38:21;100120.63;;;23.87;45.71
69187;BME280;56301;56.864;60.554;2022-08-19T03:40:43;100131.25;;;23.88;45.54
69187;BME280;56301;56.864;60.554;2022-08-19T03:43:06;100127.56;;;23.89;45.20
69187;BME280;56301;56.864;60.554;2022-08-19T03:45:28;100132.84;;;23.91;45.87
69187;BME280;56301;56.864;60.554;2022-08-19T03:47:51;100130.97;;;23.91;46.12
69187;BME280;56301;56.864;60.554;2022-08-19T03:50:14;100128.44;;;23.90;45.74
69187;BME280;56301;56.864;60.554;2022-08-19T03:52:36;100146.34;;;23.91;45.19
69187;BME280;56301;56.864;60.554;2022-08-19T03:54:59;100133.25;;;23.96;46.11
69187;BME280;56301;56.864;60.554;2022-08-19T03:57:21;100139.50;;;23.96;45.37
69187;BME280;56301;56.864;60.554;2022-08-19T03:59:43;100136.22;;;24.02;45.19
69187;BME280;56301;56.864;60.554;2022-08-19T04:02:08;100135.91;;;24.15;46.74
69187;BME280;56301;56.864;60.554;2022-08-19T04:04:31;100136.03;;;24.23;46.71
69187;BME280;56301;56.864;60.554;2022-08-19T04:06:53;100142.25;;;24.34;47.05
69187;BME280;56301;56.864;60.554;2022-08-19T04:09:15;100147.50;;;24.35;46.16
69187;BME280;56301;56.864;60.554;2022-08-19T04:11:39;100143.09;;;24.34;46.61
69187;BME280;56301;56.864;60.554;2022-08-19T04:14:02;100144.41;;;24.30;46.84
69187;BME280;56301;56.864;60.554;2022-08-19T04:16:25;100142.25;;;24.34;46.68
69187;BME280;56301;56.864;60.554;2022-08-19T04:18:48;100137.41;;;24.37;46.31
69187;BME280;56301;56.864;60.554;2022-08-19T04:21:15;100133.44;;;24.41;46.35
69187;BME280;56301;56.864;60.554;2022-08-19T04:23:37;100139.41;;;24.45;46.41
69187;BME280;56301;56.864;60.554;2022-08-19T04:26:00;100135.41;;;24.49;46.89
69187;BME280;56301;56.864;60.554;2022-08-19T04:28:22;100138.34;;;24.56;46.84
69187;BME280;56301;56.864;60.554;2022-08-19T04:30:47;100140.78;;;24.59;46.41
69187;BME280;56301;56.864;60.554;2022-08-19T04:33:12;100134.00;;;24.45;46.25
69187;BME280;56301;56.864;60.554;2022-08-19T04:35:44;100130.59;;;24.33;46.08
69187;BME280;56301;56.864;60.554;2022-08-19T04:38:06;100127.44;;;24.38;46.05
69187;BME280;56301;56.864;60.554;2022-08-19T04:40:29;100126.25;;;24.50;46.05
69187;BME280;56301;56.864;60.554;2022-08-19T04:42:51;100125.69;;;24.56;46.76
69187;BME280;56301;56.864;60.554;2022-08-19T04:45:14;100114.69;;;24.58;45.63
69187;BME280;56301;56.864;60.554;2022-08-19T04:47:36;100104.03;;;24.56;46.31
69187;BME280;56301;56.864;60.554;2022-08-19T04:49:59;100105.25;;;24.62;46.60
69187;BME280;56301;56.864;60.554;2022-08-19T04:52:22;100119.97;;;24.59;45.25
69187;BME280;56301;56.864;60.554;2022-08-19T04:54:44;100127.66;;;24.54;45.72
69187;BME280;56301;56.864;60.554;2022-08-19T04:57:07;100121.56;;;24.52;46.65
69187;BME280;56301;56.864;60.554;2022-08-19T04:59:29;100122.59;;;24.69;46.86
69187;BME280;56301;56.864;60.554;2022-08-19T05:01:52;100121.63;;;24.70;46.23
69187;BME280;56301;56.864;60.554;2022-08-19T05:04:15;100120.16;;;24.76;46.04
69187;BME280;56301;56.864;60.554;2022-08-19T05:06:38;100113.03;;;24.74;46.04
69187;BME280;56301;56.864;60.554;2022-08-19T05:09:03;100114.44;;;24.79;46.34
69187;BME280;56301;56.864;60.554;2022-08-19T05:11:27;100123.28;;;24.81;46.42
69187;BME280;56301;56.864;60.554;2022-08-19T05:13:49;100112.16;;;24.84;46.47
69187;BME280;56301;56.864;60.554;2022-08-19T05:16:12;100110.97;;;24.86;46.64
69187;BME280;56301;56.864;60.554;2022-08-19T05:18:35;100106.41;;;24.87;46.90
69187;BME280;56301;56.864;60.554;2022-08-19T05:20:57;100105.81;;;24.93;47.42
69187;BME280;56301;56.864;60.554;2022-08-19T05:23:19;100100.94;;;24.96;46.76
69187;BME280;56301;56.864;60.554;2022-08-19T05:25:42;100097.75;;;25.01;47.79
69187;BME280;56301;56.864;60.554;2022-08-19T05:28:04;100104.91;;;25.02;47.21
69187;BME280;56301;56.864;60.554;2022-08-19T05:30:27;100097.47;;;25.04;46.79
69187;BME280;56301;56.864;60.554;2022-08-19T05:32:49;100103.72;;;25.05;47.72
69187;BME280;56301;56.864;60.554;2022-08-19T05:35:11;100101.88;;;25.05;48.79
69187;BME280;56301;56.864;60.554;2022-08-19T05:37:34;100095.78;;;25.03;47.94
69187;BME280;56301;56.864;60.554;2022-08-19T05:39:56;100100.88;;;25.06;48.10
69187;BME280;56301;56.864;60.554;2022-08-19T05:42:19;100096.06;;;25.00;48.17
69187;BME280;56301;56.864;60.554;2022-08-19T05:44:42;100097.22;;;24.97;48.91
69187;BME280;56301;56.864;60.554;2022-08-19T05:47:05;100088.41;;;24.95;48.49
69187;BME280;56301;56.864;60.554;2022-08-19T05:49:29;100096.06;;;25.00;48.32
69187;BME280;56301;56.864;60.554;2022-08-19T05:51:51;100091.75;;;25.07;47.97
69187;BME280;56301;56.864;60.554;2022-08-19T05:54:13;100091.31;;;25.12;48.21
69187;BME280;56301;56.864;60.554;2022-08-19T05:56:36;100079.69;;;25.19;47.44
69187;BME280;56301;56.864;60.554;2022-08-19T05:58:58;100078.47;;;25.14;48.19
69187;BME280;56301;56.864;60.554;2022-08-19T06:01:21;100081.72;;;25.17;48.12
69187;BME280;56301;56.864;60.554;2022-08-19T06:03:43;100067.88;;;25.20;48.36
69187;BME280;56301;56.864;60.554;2022-08-19T06:06:07;100073.97;;;25.23;47.51
69187;BME280;56301;56.864;60.554;2022-08-19T06:08:30;100076.84;;;25.21;47.97
69187;BME280;56301;56.864;60.554;2022-08-19T06:10:53;100056.63;;;25.15;47.98
69187;BME280;56301;56.864;60.554;2022-08-19T06:13:15;100065.72;;;25.24;48.22
69187;BME280;56301;56.864;60.554;2022-08-19T06:15:38;100060.19;;;25.34;47.71
69187;BME280;56301;56.864;60.554;2022-08-19T06:18:00;100059.81;;;25.29;47.65
69187;BME280;56301;56.864;60.554;2022-08-19T06:20:22;100068.97;;;25.28;48.43
69187;BME280;56301;56.864;60.554;2022-08-19T06:22:46;100068.56;;;25.23;47.91
69187;BME280;56301;56.864;60.554;2022-08-19T06:25:09;100066.63;;;25.33;48.48
69187;BME280;56301;56.864;60.554;2022-08-19T06:27:32;100064.28;;;25.38;47.77
69187;BME280;56301;56.864;60.554;2022-08-19T06:29:54;100054.47;;;25.37;47.75
69187;BME280;56301;56.864;60.554;2022-08-19T06:32:18;100061.44;;;25.39;47.81
69187;BME280;56301;56.864;60.554;2022-08-19T06:34:40;100062.84;;;25.26;48.02
69187;BME280;56301;56.864;60.554;2022-08-19T06:37:03;100062.66;;;25.27;48.24
69187;BME280;56301;56.864;60.554;2022-08-19T06:39:26;100057.34;;;25.35;48.42
69187;BME280;56301;56.864;60.554;2022-08-19T06:41:49;100056.16;;;25.38;47.58
69187;BME280;56301;56.864;60.554;2022-08-19T06:44:13;100066.69;;;25.41;48.01
69187;BME280;56301;56.864;60.554;2022-08-19T06:46:36;100058.19;;;25.36;48.42
69187;BME280;56301;56.864;60.554;2022-08-19T06:48:59;100054.53;;;25.27;48.32
69187;BME280;56301;56.864;60.554;2022-08-19T06:51:22;100059.09;;;25.27;48.02
69187;BME280;56301;56.864;60.554;2022-08-19T06:53:48;100064.53;;;25.27;48.13
69187;BME280;56301;56.864;60.554;2022-08-19T06:56:12;100061.91;;;25.35;47.92
69187;BME280;56301;56.864;60.554;2022-08-19T06:58:34;100059.19;;;25.35;47.73
69187;BME280;56301;56.864;60.554;2022-08-19T07:00:57;100057.16;;;25.37;47.55
69187;BME280;56301;56.864;60.554;2022-08-19T07:03:19;100050.44;;;25.41;47.95
69187;BME280;56301;56.864;60.554;2022-08-19T07:05:42;100050.97;;;25.44;48.70
69187;BME280;56301;56.864;60.554;2022-08-19T07:08:04;100057.88;;;25.39;48.16
69187;BME280;56301;56.864;60.554;2022-08-19T07:10:27;100056.81;;;25.32;47.67
69187;BME280;56301;56.864;60.554;2022-08-19T07:12:49;100056.94;;;25.30;47.79
69187;BME280;56301;56.864;60.554;2022-08-19T07:15:11;100052.00;;;25.26;47.63
69187;BME280;56301;56.864;60.554;2022-08-19T07:17:34;100047.13;;;25.29;48.28
69187;BME280;56301;56.864;60.554;2022-08-19T07:19:56;100039.69;;;25.31;47.49
69187;BME280;56301;56.864;60.554;2022-08-19T07:22:19;100043.94;;;25.34;47.49
69187;BME280;56301;56.864;60.554;2022-08-19T07:24:41;100034.66;;;25.36;47.70
69187;BME280;56301;56.864;60.554;2022-08-19T07:27:04;100038.25;;;25.45;47.41
69187;BME280;56301;56.864;60.554;2022-08-19T07:29:27;100037.09;;;25.48;47.03
69187;BME280;56301;56.864;60.554;2022-08-19T07:31:50;100037.28;;;25.46;47.53
69187;BME280;56301;56.864;60.554;2022-08-19T07:34:12;100032.84;;;25.45;46.95
69187;BME280;56301;56.864;60.554;2022-08-19T07:36:36;100039.97;;;25.46;47.17
69187;BME280;56301;56.864;60.554;2022-08-19T07:38:59;100034.25;;;25.49;47.32
69187;BME280;56301;56.864;60.554;2022-08-19T07:41:23;100029.34;;;25.53;47.93
69187;BME280;56301;56.864;60.554;2022-08-19T07:43:46;100031.06;;;25.54;47.96
69187;BME280;56301;56.864;60.554;2022-08-19T07:46:10;100025.94;;;25.51;47.58
69187;BME280;56301;56.864;60.554;2022-08-19T07:48:32;100030.13;;;25.45;47.76
69187;BME280;56301;56.864;60.554;2022-08-19T07:50:57;100024.41;;;25.48;47.52
69187;BME280;56301;56.864;60.554;2022-08-19T07:53:20;100029.50;;;25.51;47.29
69187;BME280;56301;56.864;60.554;2022-08-19T07:55:43;100010.53;;;25.51;47.94
69187;BME280;56301;56.864;60.554;2022-08-19T07:58:05;100031.38;;;25.51;47.92
69187;BME280;56301;56.864;60.554;2022-08-19T08:00:28;100020.00;;;25.47;47.18
69187;BME280;56301;56.864;60.554;2022-08-19T08:02:51;100016.28;;;25.48;47.24
69187;BME280;56301;56.864;60.554;2022-08-19T08:05:13;100008.13;;;25.48;47.50
69187;BME280;56301;56.864;60.554;2022-08-19T08:07:36;100009.53;;;25.52;47.58
69187;BME280;56301;56.864;60.554;2022-08-19T08:09:58;100001.25;;;25.54;47.57
69187;BME280;56301;56.864;60.554;2022-08-19T08:12:22;100008.06;;;25.58;46.91
69187;BME280;56301;56.864;60.554;2022-08-19T08:14:47;99992.31;;;25.61;46.65
69187;BME280;56301;56.864;60.554;2022-08-19T08:17:10;100003.84;;;25.63;47.57
69187;BME280;56301;56.864;60.554;2022-08-19T08:19:32;99994.53;;;25.66;47.17
69187;BME280;56301;56.864;60.554;2022-08-19T08:21:55;99987.78;;;25.70;46.94
69187;BME280;56301;56.864;60.554;2022-08-19T08:24:18;99963.25;;;25.72;46.85
69187;BME280;56301;56.864;60.554;2022-08-19T08:26:40;99969.34;;;25.74;47.14
69187;BME280;56301;56.864;60.554;2022-08-19T08:29:03;99962.06;;;25.74;46.57
69187;BME280;56301;56.864;60.554;2022-08-19T08:31:25;99966.16;;;25.78;46.85
69187;BME280;56301;56.864;60.554;2022-08-19T08:33:48;99969.47;;;25.90;47.02
69187;BME280;56301;56.864;60.554;2022-08-19T08:36:11;99964.69;;;25.84;46.30
69187;BME280;56301;56.864;60.554;2022-08-19T08:38:33;99949.16;;;25.68;44.94
69187;BME280;56301;56.864;60.554;2022-08-19T08:40:57;99957.50;;;25.75;45.61
69187;BME280;56301;56.864;60.554;2022-08-19T08:43:38;99964.19;;;25.62;44.54
69187;BME280;56301;56.864;60.554;2022-08-19T08:51:05;99950.91;;;25.51;44.39
69187;BME280;56301;56.864;60.554;2022-08-19T08:53:29;99950.59;;;25.54;44.28
69187;BME280;56301;56.864;60.554;2022-08-19T08:55:52;99960.44;;;25.55;43.39
69187;BME280;56301;56.864;60.554;2022-08-19T08:58:20;99947.56;;;25.57;42.83
69187;BME280;56301;56.864;60.554;2022-08-19T09:00:48;99949.63;;;25.63;43.12
69187;BME280;56301;56.864;60.554;2022-08-19T09:03:20;99954.38;;;25.61;43.41
69187;BME280;56301;56.864;60.554;2022-08-19T09:05:59;99945.84;;;25.56;42.46
69187;BME280;56301;56.864;60.554;2022-08-19T09:08:33;99946.38;;;25.60;42.20
69187;BME280;56301;56.864;60.554;2022-08-19T09:11:00;99935.22;;;25.63;42.86
69187;BME280;56301;56.864;60.554;2022-08-19T09:13:35;99951.50;;;25.63;41.92
69187;BME280;56301;56.864;60.554;2022-08-19T09:16:07;99953.66;;;25.59;42.42
69187;BME280;56301;56.864;60.554;2022-08-19T09:18:44;99945.53;;;25.59;42.59
69187;BME280;56301;56.864;60.554;2022-08-19T09:21:07;99943.84;;;25.58;41.91
69187;BME280;56301;56.864;60.554;2022-08-19T09:23:30;99931.00;;;25.60;41.97
69187;BME280;56301;56.864;60.554;2022-08-19T09:25:52;99931.84;;;25.61;41.69
69187;BME280;56301;56.864;60.554;2022-08-19T09:28:15;99924.91;;;25.66;41.81
69187;BME280;56301;56.864;60.554;2022-08-19T09:30:41;99929.66;;;25.64;41.16
69187;BME280;56301;56.864;60.554;2022-08-19T09:33:03;99916.25;;;25.63;41.39
69187;BME280;56301;56.864;60.554;2022-08-19T09:35:27;99915.25;;;25.64;41.42
69187;BME280;56301;56.864;60.554;2022-08-19T09:37:50;99918.84;;;25.73;41.68
69187;BME280;56301;56.864;60.554;2022-08-19T09:40:12;99914.28;;;25.73;41.49
69187;BME280;56301;56.864;60.554;2022-08-19T09:42:35;99885.53;;;25.80;42.47
69187;BME280;56301;56.864;60.554;2022-08-19T09:44:57;99882.13;;;25.78;40.31
69187;BME280;56301;56.864;60.554;2022-08-19T09:47:19;99889.94;;;25.81;40.73
69187;BME280;56301;56.864;60.554;2022-08-19T09:49:42;99881.66;;;25.83;40.36
69187;BME280;56301;56.864;60.554;2022-08-19T09:52:05;99901.66;;;25.82;40.57
69187;BME280;56301;56.864;60.554;2022-08-19T09:54:27;99887.41;;;25.80;40.53
69187;BME280;56301;56.864;60.554;2022-08-19T09:56:50;99889.94;;;25.81;40.64
69187;BME280;56301;56.864;60.554;2022-08-19T09:59:12;99884.50;;;25.81;40.34
69187;BME280;56301;56.864;60.554;2022-08-19T10:01:35;99891.97;;;25.79;40.64
69187;BME280;56301;56.864;60.554;2022-08-19T10:03:58;99889.09;;;25.81;40.27
69187;BME280;56301;56.864;60.554;2022-08-19T10:06:24;99885.16;;;25.75;40.99
69187;BME280;56301;56.864;60.554;2022-08-19T10:08:48;99883.88;;;25.87;40.20
69187;BME280;56301;56.864;60.554;2022-08-19T10:11:10;99870.09;;;25.81;39.94
69187;BME280;56301;56.864;60.554;2022-08-19T10:13:33;99860.59;;;25.77;40.21
69187;BME280;56301;56.864;60.554;2022-08-19T10:15:56;99874.63;;;25.72;40.45
69187;BME280;56301;56.864;60.554;2022-08-19T10:18:20;99869.88;;;25.74;40.91
69187;BME280;56301;56.864;60.554;2022-08-19T10:20:43;99875.47;;;25.73;40.81
69187;BME280;56301;56.864;60.554;2022-08-19T10:23:06;99861.13;;;25.80;40.18
69187;BME280;56301;56.864;60.554;2022-08-19T10:25:28;99862.63;;;25.75;40.19
69187;BME280;56301;56.864;60.554;2022-08-19T10:27:51;99852.44;;;25.77;39.86
69187;BME280;56301;56.864;60.554;2022-08-19T10:30:16;99855.88;;;25.79;40.58
69187;BME280;56301;56.864;60.554;2022-08-19T10:32:39;99855.16;;;25.77;40.29
69187;BME280;56301;56.864;60.554;2022-08-19T10:35:01;99845.03;;;25.79;40.38
69187;BME280;56301;56.864;60.554;2022-08-19T10:37:24;99844.63;;;25.74;40.85
69187;BME280;56301;56.864;60.554;2022-08-19T10:39:46;99842.78;;;25.74;40.94
69187;BME280;56301;56.864;60.554;2022-08-19T10:42:09;99848.72;;;25.78;40.70
69187;BME280;56301;56.864;60.554;2022-08-19T10:44:32;99843.78;;;25.73;41.21
69187;BME280;56301;56.864;60.554;2022-08-19T10:46:55;99838.56;;;25.72;41.41
69187;BME280;56301;56.864;60.554;2022-08-19T10:49:18;99837.00;;;25.69;42.04
69187;BME280;56301;56.864;60.554;2022-08-19T10:51:41;99838.88;;;25.68;42.30
69187;BME280;56301;56.864;60.554;2022-08-19T10:54:03;99842.22;;;25.62;42.13
69187;BME280;56301;56.864;60.554;2022-08-19T10:56:26;99825.25;;;25.52;42.79
69187;BME280;56301;56.864;60.554;2022-08-19T10:58:49;99836.44;;;25.49;41.55
69187;BME280;56301;56.864;60.554;2022-08-19T11:01:11;99831.00;;;25.49;42.88
69187;BME280;56301;56.864;60.554;2022-08-19T11:03:34;99826.75;;;25.47;42.77
69187;BME280;56301;56.864;60.554;2022-08-19T11:05:57;99819.47;;;25.47;43.14
69187;BME280;56301;56.864;60.554;2022-08-19T11:08:19;99833.03;;;25.47;42.69
69187;BME280;56301;56.864;60.554;2022-08-19T11:10:41;99829.63;;;25.45;42.94
69187;BME280;56301;56.864;60.554;2022-08-19T11:13:04;99824.19;;;25.45;42.88
69187;BME280;56301;56.864;60.554;2022-08-19T11:15:26;99816.25;;;25.43;43.04
69187;BME280;56301;56.864;60.554;2022-08-19T11:17:49;99812.69;;;25.43;43.54
69187;BME280;56301;56.864;60.554;2022-08-19T11:20:13;99808.28;;;25.42;44.23
69187;BME280;56301;56.864;60.554;2022-08-19T11:22:36;99802.88;;;25.42;44.25
69187;BME280;56301;56.864;60.554;2022-08-19T11:24:58;99793.72;;;25.43;43.40
69187;BME280;56301;56.864;60.554;2022-08-19T11:27:21;99792.03;;;25.42;43.73
69187;BME280;56301;56.864;60.554;2022-08-19T11:29:43;99792.03;;;25.42;43.40
69187;BME280;56301;56.864;60.554;2022-08-19T11:32:07;99795.72;;;25.41;42.58
69187;BME280;56301;56.864;60.554;2022-08-19T11:34:29;99789.47;;;25.40;43.28
69187;BME280;56301;56.864;60.554;2022-08-19T11:36:52;99788.63;;;25.40;42.85
69187;BME280;56301;56.864;60.554;2022-08-19T11:39:15;99787.47;;;25.42;43.85
69187;BME280;56301;56.864;60.554;2022-08-19T11:41:39;99786.75;;;25.40;43.11
69187;BME280;56301;56.864;60.554;2022-08-19T11:44:01;99791.34;;;25.40;43.46
69187;BME280;56301;56.864;60.554;2022-08-19T11:46:24;99778.81;;;25.39;42.90
69187;BME280;56301;56.864;60.554;2022-08-19T11:48:48;99788.63;;;25.40;43.89
69187;BME280;56301;56.864;60.554;2022-08-19T11:51:14;99783.53;;;25.37;43.30
69187;BME280;56301;56.864;60.554;2022-08-19T11:53:37;99783.38;;;25.38;43.98
69187;BME280;56301;56.864;60.554;2022-08-19T11:56:00;99778.97;;;25.37;43.46
69187;BME280;56301;56.864;60.554;2022-08-19T11:58:23;99778.09;;;25.37;43.97
69187;BME280;56301;56.864;60.554;2022-08-19T12:00:45;99775.41;;;25.37;44.02
69187;BME280;56301;56.864;60.554;2022-08-19T12:03:08;99772.69;;;25.37;43.22
69187;BME280;56301;56.864;60.554;2022-08-19T12:05:30;99774.38;;;25.38;43.72
69187;BME280;56301;56.864;60.554;2022-08-19T12:07:52;99758.31;;;25.36;43.82
69187;BME280;56301;56.864;60.554;2022-08-19T12:10:15;99771.66;;;25.38;43.59
69187;BME280;56301;56.864;60.554;2022-08-19T12:12:37;99781.66;;;25.37;43.22
69187;BME280;56301;56.864;60.554;2022-08-19T12:15:00;99771.00;;;25.36;43.95
69187;BME280;56301;56.864;60.554;2022-08-19T12:17:23;99774.72;;;25.35;44.31
69187;BME280;56301;56.864;60.554;2022-08-19T12:19:45;99762.88;;;25.36;43.63
69187;BME280;56301;56.864;60.554;2022-08-19T12:22:08;99764.03;;;25.33;44.35
69187;BME280;56301;56.864;60.554;2022-08-19T12:24:31;99766.75;;;25.33;44.55
69187;BME280;56301;56.864;60.554;2022-08-19T12:26:54;99761.19;;;25.35;44.62